sensor_id;sensor_type;location;lat;lon;timestamp;pressure;altitude;pressure_sealevel;temperature;humidity
73240;BME280;61452;40.054;4.110;2023-02-01T00:02:37;102830.44;;;13.29;57.53
73240;BME280;61452;40.054;4.110;2023-02-01T00:07:42;102831.34;;;13.28;57.39
73240;BME280;61452;40.054;4.110;2023-02-01T00:12:45;102835.72;;;13.28;57.01
73240;BME280;61452;40.054;4.110;2023-02-01T00:17:47;102826.94;;;13.29;57.10
73240;BME280;61452;40.054;4.110;2023-02-01T00:22:49;102828.63;;;13.31;57.07
73240;BME280;61452;40.054;4.110;2023-02-01T00:27:51;102840.91;;;13.32;57.15
73240;BME280;61452;40.054;4.110;2023-02-01T00:32:54;102831.25;;;13.31;57.15
73240;BME280;61452;40.054;4.110;2023-02-01T00:37:56;102843.56;;;13.31;57.07
73240;BME280;61452;40.054;4.110;2023-02-01T00:43:00;102843.56;;;13.31;57.02
73240;BME280;61452;40.054;4.110;2023-02-01T00:48:03;102834.84;;;13.29;56.81
73240;BME280;61452;40.054;4.110;2023-02-01T00:53:05;102839.19;;;13.30;56.47
73240;BME280;61452;40.054;4.110;2023-02-01T00:58:07;102823.56;;;13.24;56.42
73240;BME280;61452;40.054;4.110;2023-02-01T01:03:11;102842.69;;;13.32;56.71
73240;BME280;61452;40.054;4.110;2023-02-01T01:08:22;102844.47;;;13.30;56.66
73240;BME280;61452;40.054;4.110;2023-02-01T01:13:24;102833.06;;;13.29;56.74
73240;BME280;61452;40.054;4.110;2023-02-01T01:18:26;102835.69;;;13.29;56.43
73240;BME280;61452;40.054;4.110;2023-02-01T01:23:29;102845.38;;;13.29;56.49
73240;BME280;61452;40.054;4.110;2023-02-01T01:28:31;102833.03;;;13.31;56.52
73240;BME280;61452;40.054;4.110;2023-02-01T01:33:33;102847.94;;;13.32;56.41
73240;BME280;61452;40.054;4.110;2023-02-01T01:38:36;102839.97;;;13.33;56.30
73240;BME280;61452;40.054;4.110;2023-02-01T01:43:48;102833.94;;;13.30;56.46
73240;BME280;61452;40.054;4.110;2023-02-01T01:49:14;102827.78;;;13.29;56.63
73240;BME280;61452;40.054;4.110;2023-02-01T01:54:24;102833.94;;;13.30;56.61
73240;BME280;61452;40.054;4.110;2023-02-01T01:59:27;102834.81;;;13.30;56.44
73240;BME280;61452;40.054;4.110;2023-02-01T02:04:32;102833.91;;;13.31;56.02
73240;BME280;61452;40.054;4.110;2023-02-01T02:09:35;102828.59;;;13.33;56.22
73240;BME280;61452;40.054;4.110;2023-02-01T02:14:38;102825.91;;;13.34;56.70
73240;BME280;61452;40.054;4.110;2023-02-01T02:20:22;102828.63;;;13.31;57.04
73240;BME280;61452;40.054;4.110;2023-02-01T02:41:32;102813.69;;;13.32;56.06
73240;BME280;61452;40.054;4.110;2023-02-01T02:46:55;102808.31;;;13.35;56.31
73240;BME280;61452;40.054;4.110;2023-02-01T02:52:20;102802.13;;;13.36;56.48
73240;BME280;61452;40.054;4.110;2023-02-01T02:57:42;102797.03;;;13.30;56.59
73240;BME280;61452;40.054;4.110;2023-02-01T03:03:05;102787.31;;;13.32;56.48
73240;BME280;61452;40.054;4.110;2023-02-01T03:08:30;102798.84;;;13.28;56.41
73240;BME280;61452;40.054;4.110;2023-02-01T03:13:52;102785.63;;;13.29;56.16
73240;BME280;61452;40.054;4.110;2023-02-01T03:19:00;102785.56;;;13.32;55.88
73240;BME280;61452;40.054;4.110;2023-02-01T03:24:51;102796.91;;;13.34;56.02
73240;BME280;61452;40.054;4.110;2023-02-01T03:29:50;102794.25;;;13.34;56.17
73240;BME280;61452;40.054;4.110;2023-02-01T03:34:54;102793.50;;;13.31;56.28
73240;BME280;61452;40.054;4.110;2023-02-01T03:39:59;102788.19;;;13.32;56.03
73240;BME280;61452;40.054;4.110;2023-02-01T03:50:10;102802.28;;;13.31;55.77
73240;BME280;61452;40.054;4.110;2023-02-01T03:55:15;102791.69;;;13.33;56.00
73240;BME280;61452;40.054;4.110;2023-02-01T04:00:22;102810.03;;;13.36;56.11
73240;BME280;61452;40.054;4.110;2023-02-01T04:05:25;102808.31;;;13.35;56.26
73240;BME280;61452;40.054;4.110;2023-02-01T04:10:34;102813.59;;;13.35;56.34
73240;BME280;61452;40.054;4.110;2023-02-01T04:15:37;102810.16;;;13.33;56.70
73240;BME280;61452;40.054;4.110;2023-02-01T04:20:39;102816.25;;;13.33;56.98
73240;BME280;61452;40.054;4.110;2023-02-01T04:25:41;102821.53;;;13.33;56.73
73240;BME280;61452;40.054;4.110;2023-02-01T04:30:45;102817.09;;;13.35;56.80
73240;BME280;61452;40.054;4.110;2023-02-01T04:35:48;102815.28;;;13.38;56.96
73240;BME280;61452;40.054;4.110;2023-02-01T04:40:50;102817.09;;;13.35;57.21
73240;BME280;61452;40.054;4.110;2023-02-01T04:45:52;102809.19;;;13.35;56.97
73240;BME280;61452;40.054;4.110;2023-02-01T04:50:55;102810.09;;;13.34;56.88
73240;BME280;61452;40.054;4.110;2023-02-01T04:55:58;102815.34;;;13.34;56.97
73240;BME280;61452;40.054;4.110;2023-02-01T05:01:02;102807.44;;;13.34;57.14
73240;BME280;61452;40.054;4.110;2023-02-01T05:06:06;102814.41;;;13.37;56.80
73240;BME280;61452;40.054;4.110;2023-02-01T05:11:08;102802.97;;;13.38;56.82
73240;BME280;61452;40.054;4.110;2023-02-01T05:16:33;102817.09;;;13.35;56.85
73240;BME280;61452;40.054;4.110;2023-02-01T05:21:35;102817.09;;;13.35;57.16
73240;BME280;61452;40.054;4.110;2023-02-01T05:26:41;102827.63;;;13.35;56.95
73240;BME280;61452;40.054;4.110;2023-02-01T05:31:47;102822.38;;;13.34;56.80
73240;BME280;61452;40.054;4.110;2023-02-01T05:36:50;102827.63;;;13.35;56.69
73240;BME280;61452;40.054;4.110;2023-02-01T05:41:52;102832.84;;;13.39;56.77
73240;BME280;61452;40.054;4.110;2023-02-01T05:46:54;102832.84;;;13.39;57.13
73240;BME280;61452;40.054;4.110;2023-02-01T05:51:56;102838.09;;;13.39;57.01
73240;BME280;61452;40.054;4.110;2023-02-01T05:57:01;102846.91;;;13.38;57.34
73240;BME280;61452;40.054;4.110;2023-02-01T06:02:03;102846.94;;;13.36;57.16
73240;BME280;61452;40.054;4.110;2023-02-01T06:07:07;102852.22;;;13.36;57.23
73240;BME280;61452;40.054;4.110;2023-02-01T06:12:09;102858.34;;;13.36;56.92
73240;BME280;61452;40.054;4.110;2023-02-01T06:17:11;102850.44;;;13.36;56.87
73240;BME280;61452;40.054;4.110;2023-02-01T06:22:14;102852.16;;;13.39;57.07
73240;BME280;61452;40.054;4.110;2023-02-01T06:27:16;102861.75;;;13.40;57.27
73240;BME280;61452;40.054;4.110;2023-02-01T06:32:18;102865.34;;;13.38;57.26
73240;BME280;61452;40.054;4.110;2023-02-01T06:37:20;102861.00;;;13.36;57.07
73240;BME280;61452;40.054;4.110;2023-02-01T06:42:23;102867.13;;;13.37;57.24
73240;BME280;61452;40.054;4.110;2023-02-01T06:47:25;102875.91;;;13.38;57.26
73240;BME280;61452;40.054;4.110;2023-02-01T06:52:27;102872.38;;;13.39;56.83
73240;BME280;61452;40.054;4.110;2023-02-01T06:57:29;102876.78;;;13.38;56.91
73240;BME280;61452;40.054;4.110;2023-02-01T07:02:32;102877.63;;;13.39;57.55
73240;BME280;61452;40.054;4.110;2023-02-01T07:07:34;102873.47;;;13.30;57.26
73240;BME280;61452;40.054;4.110;2023-02-01T07:12:37;102892.63;;;13.36;57.44
73240;BME280;61452;40.054;4.110;2023-02-01T07:17:39;102903.16;;;13.36;57.32
73240;BME280;61452;40.054;4.110;2023-02-01T07:22:41;102903.13;;;13.38;57.18
73240;BME280;61452;40.054;4.110;2023-02-01T07:27:43;102891.69;;;13.39;57.00
73240;BME280;61452;40.054;4.110;2023-02-01T07:32:45;102910.94;;;13.41;57.28
73240;BME280;61452;40.054;4.110;2023-02-01T07:37:48;102910.97;;;13.40;57.35
73240;BME280;61452;40.054;4.110;2023-02-01T07:42:50;102918.88;;;13.40;57.63
73240;BME280;61452;40.054;4.110;2023-02-01T07:47:52;102919.81;;;13.39;57.77
73240;BME280;61452;40.054;4.110;2023-02-01T07:52:55;102927.72;;;13.39;57.92
73240;BME280;61452;40.054;4.110;2023-02-01T07:57:59;102925.13;;;13.37;58.31
73240;BME280;61452;40.054;4.110;2023-02-01T08:03:03;102933.84;;;13.39;58.17
73240;BME280;61452;40.054;4.110;2023-02-01T08:08:06;102933.78;;;13.41;58.19
73240;BME280;61452;40.054;4.110;2023-02-01T08:13:10;102945.25;;;13.40;58.68
73240;BME280;61452;40.054;4.110;2023-02-01T08:18:12;102948.84;;;13.37;58.93
73240;BME280;61452;40.054;4.110;2023-02-01T08:23:18;102947.94;;;13.38;59.05
73240;BME280;61452;40.054;4.110;2023-02-01T08:28:20;102963.78;;;13.36;59.09
73240;BME280;61452;40.054;4.110;2023-02-01T08:33:22;102976.09;;;13.36;59.14
73240;BME280;61452;40.054;4.110;2023-02-01T08:38:24;102969.03;;;13.38;58.90
73240;BME280;61452;40.054;4.110;2023-02-01T08:43:26;102971.59;;;13.40;58.70
73240;BME280;61452;40.054;4.110;2023-02-01T08:48:28;102974.19;;;13.41;58.83
73240;BME280;61452;40.054;4.110;2023-02-01T08:53:31;102977.75;;;13.40;58.94
73240;BME280;61452;40.054;4.110;2023-02-01T08:58:33;102979.50;;;13.40;58.89
73240;BME280;61452;40.054;4.110;2023-02-01T09:03:36;102969.91;;;13.39;58.72
73240;BME280;61452;40.054;4.110;2023-02-01T09:08:39;102980.44;;;13.39;58.20
73240;BME280;61452;40.054;4.110;2023-02-01T09:13:42;102985.72;;;13.39;58.43
73240;BME280;61452;40.054;4.110;2023-02-01T09:18:44;102977.75;;;13.40;58.28
73240;BME280;61452;40.054;4.110;2023-02-01T09:24:06;102983.88;;;13.41;58.28
73240;BME280;61452;40.054;4.110;2023-02-01T09:29:10;102978.66;;;13.39;58.76
73240;BME280;61452;40.054;4.110;2023-02-01T09:34:14;102990.13;;;13.38;58.62
73240;BME280;61452;40.054;4.110;2023-02-01T09:39:17;103007.66;;;13.39;58.50
73240;BME280;61452;40.054;4.110;2023-02-01T09:44:43;103002.41;;;13.38;58.13
73240;BME280;61452;40.054;4.110;2023-02-01T09:49:58;103002.41;;;13.39;57.97
73240;BME280;61452;40.054;4.110;2023-02-01T10:00:36;103010.22;;;13.42;58.18
73240;BME280;61452;40.054;4.110;2023-02-01T10:10:49;103007.66;;;13.39;58.03
73240;BME280;61452;40.054;4.110;2023-02-01T10:26:19;103012.88;;;13.41;57.21
73240;BME280;61452;40.054;4.110;2023-02-01T10:31:25;103016.34;;;13.43;57.39
73240;BME280;61452;40.054;4.110;2023-02-01T10:37:10;103016.38;;;13.41;57.55
73240;BME280;61452;40.054;4.110;2023-02-01T10:42:25;103014.63;;;13.42;57.28
73240;BME280;61452;40.054;4.110;2023-02-01T10:47:27;103009.38;;;13.40;57.22
73240;BME280;61452;40.054;4.110;2023-02-01T10:52:37;103001.47;;;13.40;57.07
73240;BME280;61452;40.054;4.110;2023-02-01T10:57:40;102998.91;;;13.37;56.95
73240;BME280;61452;40.054;4.110;2023-02-01T11:02:43;102996.16;;;13.42;56.67
73240;BME280;61452;40.054;4.110;2023-02-01T11:07:49;102993.47;;;13.45;56.63
73240;BME280;61452;40.054;4.110;2023-02-01T11:12:54;102985.59;;;13.43;56.82
73240;BME280;61452;40.054;4.110;2023-02-01T11:18:14;102971.59;;;13.40;56.79
73240;BME280;61452;40.054;4.110;2023-02-01T11:23:18;102973.31;;;13.42;56.42
73240;BME280;61452;40.054;4.110;2023-02-01T11:28:25;102966.31;;;13.40;56.38
73240;BME280;61452;40.054;4.110;2023-02-01T11:33:34;102967.16;;;13.42;56.02
73240;BME280;61452;40.054;4.110;2023-02-01T11:38:37;102955.69;;;13.44;56.23
73240;BME280;61452;40.054;4.110;2023-02-01T11:43:58;102954.78;;;13.45;56.22
73240;BME280;61452;40.054;4.110;2023-02-01T11:54:47;102933.72;;;13.44;56.53
73240;BME280;61452;40.054;4.110;2023-02-01T12:43:38;102853.69;;;13.46;55.94
73240;BME280;61452;40.054;4.110;2023-02-01T12:54:46;102835.19;;;13.48;55.92
73240;BME280;61452;40.054;4.110;2023-02-01T13:00:13;102818.50;;;13.47;56.21
73240;BME280;61452;40.054;4.110;2023-02-01T13:05:19;102810.59;;;13.47;56.20
73240;BME280;61452;40.054;4.110;2023-02-01T13:15:51;102799.19;;;13.47;55.68
73240;BME280;61452;40.054;4.110;2023-02-01T13:21:08;102802.72;;;13.46;56.08
73240;BME280;61452;40.054;4.110;2023-02-01T13:26:12;102808.81;;;13.49;55.76
73240;BME280;61452;40.054;4.110;2023-02-01T13:31:28;102797.34;;;13.50;56.05
73240;BME280;61452;40.054;4.110;2023-02-01T13:42:05;102794.72;;;13.50;56.87
73240;BME280;61452;40.054;4.110;2023-02-01T13:52:34;102788.56;;;13.50;57.42
73240;BME280;61452;40.054;4.110;2023-02-01T13:57:39;102790.31;;;13.51;57.69
73240;BME280;61452;40.054;4.110;2023-02-01T14:27:45;102802.81;;;13.44;59.33
73240;BME280;61452;40.054;4.110;2023-02-01T14:32:47;102800.00;;;13.50;58.98
73240;BME280;61452;40.054;4.110;2023-02-01T14:37:54;102799.88;;;13.53;58.44
73240;BME280;61452;40.054;4.110;2023-02-01T14:43:01;102802.50;;;13.55;58.50
73240;BME280;61452;40.054;4.110;2023-02-01T15:09:26;102832.22;;;13.60;58.70
73240;BME280;61452;40.054;4.110;2023-02-01T15:14:38;102837.44;;;13.61;58.85
73240;BME280;61452;40.054;4.110;2023-02-01T15:19:53;102843.63;;;13.60;59.24
73240;BME280;61452;40.054;4.110;2023-02-01T15:24:59;102853.31;;;13.60;59.06
73240;BME280;61452;40.054;4.110;2023-02-01T15:30:16;102854.22;;;13.59;59.00
73240;BME280;61452;40.054;4.110;2023-02-01T15:41:28;102854.19;;;13.60;58.94
73240;BME280;61452;40.054;4.110;2023-02-01T15:46:41;102866.41;;;13.63;59.26
73240;BME280;61452;40.054;4.110;2023-02-01T16:07:32;102878.75;;;13.62;60.00
73240;BME280;61452;40.054;4.110;2023-02-01T16:17:43;102869.84;;;13.65;59.98
73240;BME280;61452;40.054;4.110;2023-02-01T16:22:45;102877.72;;;13.66;59.82
73240;BME280;61452;40.054;4.110;2023-02-01T16:27:47;102871.56;;;13.67;60.08
73240;BME280;61452;40.054;4.110;2023-02-01T16:32:54;102874.19;;;13.67;60.20
73240;BME280;61452;40.054;4.110;2023-02-01T16:37:58;102880.34;;;13.68;60.02
73240;BME280;61452;40.054;4.110;2023-02-01T16:43:00;102879.38;;;13.70;60.23
73240;BME280;61452;40.054;4.110;2023-02-01T16:48:04;102881.09;;;13.71;60.43
73240;BME280;61452;40.054;4.110;2023-02-01T16:53:08;102883.84;;;13.68;60.42
73240;BME280;61452;40.054;4.110;2023-02-01T16:58:19;102867.34;;;13.60;60.18
73240;BME280;61452;40.054;4.110;2023-02-01T17:03:21;102881.25;;;13.67;60.08
73240;BME280;61452;40.054;4.110;2023-02-01T17:08:30;102887.38;;;13.67;60.02
73240;BME280;61452;40.054;4.110;2023-02-01T17:13:36;102880.31;;;13.69;59.96
73240;BME280;61452;40.054;4.110;2023-02-01T17:18:38;102879.38;;;13.70;60.12
73240;BME280;61452;40.054;4.110;2023-02-01T17:23:41;102874.97;;;13.71;60.18
73240;BME280;61452;40.054;4.110;2023-02-01T17:28:43;102873.44;;;13.64;60.09
73240;BME280;61452;40.054;4.110;2023-02-01T17:33:45;102867.16;;;13.68;60.00
73240;BME280;61452;40.054;4.110;2023-02-01T17:38:47;102863.53;;;13.70;59.70
73240;BME280;61452;40.054;4.110;2023-02-01T17:44:07;102866.25;;;13.69;59.78
73240;BME280;61452;40.054;4.110;2023-02-01T17:49:10;102866.25;;;13.69;59.44
73240;BME280;61452;40.054;4.110;2023-02-01T17:54:14;102870.56;;;13.71;59.57
73240;BME280;61452;40.054;4.110;2023-02-01T17:59:17;102879.34;;;13.72;59.33
73240;BME280;61452;40.054;4.110;2023-02-01T18:04:20;102878.56;;;13.68;59.65
73240;BME280;61452;40.054;4.110;2023-02-01T18:09:23;102880.31;;;13.69;59.30
73240;BME280;61452;40.054;4.110;2023-02-01T18:14:25;102872.38;;;13.69;59.25
73240;BME280;61452;40.054;4.110;2023-02-01T18:19:27;102889.09;;;13.70;59.18
73240;BME280;61452;40.054;4.110;2023-02-01T18:24:30;102879.38;;;13.70;58.88
73240;BME280;61452;40.054;4.110;2023-02-01T18:29:34;102883.69;;;13.73;59.06
73240;BME280;61452;40.054;4.110;2023-02-01T18:34:36;102903.06;;;13.72;59.09
73240;BME280;61452;40.054;4.110;2023-02-01T18:39:38;102884.59;;;13.72;59.46
73240;BME280;61452;40.054;4.110;2023-02-01T18:44:40;102892.53;;;13.72;59.00
73240;BME280;61452;40.054;4.110;2023-02-01T18:49:43;102895.19;;;13.70;59.00
73240;BME280;61452;40.054;4.110;2023-02-01T18:54:45;102893.50;;;13.69;59.07
73240;BME280;61452;40.054;4.110;2023-02-01T19:00:00;102894.25;;;13.73;58.89
73240;BME280;61452;40.054;4.110;2023-02-01T19:05:02;102895.09;;;13.75;59.06
73240;BME280;61452;40.054;4.110;2023-02-01T19:10:10;102899.47;;;13.76;59.12
73240;BME280;61452;40.054;4.110;2023-02-01T19:15:14;102896.03;;;13.72;59.32
73240;BME280;61452;40.054;4.110;2023-02-01T19:20:18;102890.91;;;13.66;59.24
73240;BME280;61452;40.054;4.110;2023-02-01T19:25:24;102910.22;;;13.68;59.25
73240;BME280;61452;40.054;4.110;2023-02-01T19:30:27;102913.66;;;13.70;59.21
73240;BME280;61452;40.054;4.110;2023-02-01T19:35:30;102903.09;;;13.70;59.03
73240;BME280;61452;40.054;4.110;2023-02-01T19:40:33;102901.25;;;13.74;58.58
73240;BME280;61452;40.054;4.110;2023-02-01T19:45:35;102902.13;;;13.74;59.02
73240;BME280;61452;40.054;4.110;2023-02-01T19:50:38;102891.59;;;13.74;58.98
73240;BME280;61452;40.054;4.110;2023-02-01T19:55:44;102884.66;;;13.70;59.11
73240;BME280;61452;40.054;4.110;2023-02-01T20:00:47;102875.91;;;13.70;58.84
73240;BME280;61452;40.054;4.110;2023-02-01T20:05:54;102891.72;;;13.70;58.51
73240;BME280;61452;40.054;4.110;2023-02-01T20:10:56;102894.34;;;13.70;58.59
73240;BME280;61452;40.054;4.110;2023-02-01T20:15:59;102898.63;;;13.74;57.98
73240;BME280;61452;40.054;4.110;2023-02-01T20:21:01;102892.53;;;13.72;58.45
73240;BME280;61452;40.054;4.110;2023-02-01T20:26:06;102903.97;;;13.71;58.66
73240;BME280;61452;40.054;4.110;2023-02-01T20:31:08;102894.34;;;13.70;58.57
73240;BME280;61452;40.054;4.110;2023-02-01T20:36:13;102897.81;;;13.70;58.47
73240;BME280;61452;40.054;4.110;2023-02-01T20:41:15;102897.91;;;13.69;58.22
73240;BME280;61452;40.054;4.110;2023-02-01T20:46:18;102909.22;;;13.72;58.31
73240;BME280;61452;40.054;4.110;2023-02-01T20:51:20;102908.28;;;13.75;58.57
73240;BME280;61452;40.054;4.110;2023-02-01T20:56:23;102903.91;;;13.74;58.71
73240;BME280;61452;40.054;4.110;2023-02-01T21:01:25;102899.56;;;13.71;58.60
73240;BME280;61452;40.054;4.110;2023-02-01T21:06:27;102893.41;;;13.71;58.83
73240;BME280;61452;40.054;4.110;2023-02-01T21:11:29;102898.69;;;13.71;58.80
73240;BME280;61452;40.054;4.110;2023-02-01T21:16:32;102897.91;;;13.69;58.65
73240;BME280;61452;40.054;4.110;2023-02-01T21:21:35;102892.56;;;13.70;58.71
73240;BME280;61452;40.054;4.110;2023-02-01T21:26:37;102899.50;;;13.74;58.77
73240;BME280;61452;40.054;4.110;2023-02-01T21:31:42;102901.25;;;13.74;58.84
73240;BME280;61452;40.054;4.110;2023-02-01T21:36:44;102897.78;;;13.72;58.78
73240;BME280;61452;40.054;4.110;2023-02-01T21:41:47;102910.97;;;13.72;59.19
73240;BME280;61452;40.054;4.110;2023-02-01T21:47:09;102909.22;;;13.72;59.06
73240;BME280;61452;40.054;4.110;2023-02-01T21:52:12;102915.38;;;13.71;59.00
73240;BME280;61452;40.054;4.110;2023-02-01T21:57:14;102918.84;;;13.73;59.06
73240;BME280;61452;40.054;4.110;2023-02-01T22:02:17;102916.19;;;13.75;59.69
73240;BME280;61452;40.054;4.110;2023-02-01T22:07:19;102914.34;;;13.77;59.86
73240;BME280;61452;40.054;4.110;2023-02-01T22:12:21;102920.56;;;13.76;60.12
73240;BME280;61452;40.054;4.110;2023-02-01T22:17:24;102920.63;;;13.73;60.03
73240;BME280;61452;40.054;4.110;2023-02-01T22:22:26;102917.09;;;13.74;60.01
73240;BME280;61452;40.054;4.110;2023-02-01T22:27:28;102925.00;;;13.74;59.89
73240;BME280;61452;40.054;4.110;2023-02-01T22:32:50;102923.25;;;13.73;59.94
73240;BME280;61452;40.054;4.110;2023-02-01T22:37:52;102935.50;;;13.75;60.03
73240;BME280;61452;40.054;4.110;2023-02-01T22:42:55;102936.38;;;13.76;60.16
73240;BME280;61452;40.054;4.110;2023-02-01T22:47:57;102935.50;;;13.75;60.26
73240;BME280;61452;40.054;4.110;2023-02-01T22:53:00;102946.09;;;13.74;60.92
73240;BME280;61452;40.054;4.110;2023-02-01T22:58:02;102958.44;;;13.72;60.87
73240;BME280;61452;40.054;4.110;2023-02-01T23:03:05;102949.66;;;13.71;60.53
73240;BME280;61452;40.054;4.110;2023-02-01T23:08:08;102950.53;;;13.72;60.65
73240;BME280;61452;40.054;4.110;2023-02-01T23:13:10;102946.97;;;13.74;60.85
73240;BME280;61452;40.054;4.110;2023-02-01T23:18:12;102946.94;;;13.76;61.15
73240;BME280;61452;40.054;4.110;2023-02-01T23:23:14;102925.13;;;13.69;61.27
73240;BME280;61452;40.054;4.110;2023-02-01T23:28:16;102942.50;;;13.76;61.07
73240;BME280;61452;40.054;4.110;2023-02-01T23:33:23;102933.78;;;13.74;61.00
73240;BME280;61452;40.054;4.110;2023-02-01T23:38:26;102932.06;;;13.72;60.87
73240;BME280;61452;40.054;4.110;2023-02-01T23:43:29;102926.84;;;13.70;61.16
73240;BME280;61452;40.054;4.110;2023-02-01T23:48:50;102932.00;;;13.75;60.80
73240;BME280;61452;40.054;4.110;2023-02-01T23:53:53;102924.03;;;13.76;61.08
73240;BME280;61452;40.054;4.110;2023-02-01T23:58:55;102917.09;;;13.74;61.03
